Terminal Aerodrome Forecast
Issued by NWS

Home | Current Version | Previous Version | Text Only | Print | Product List | Glossary On
Versions: 1 2 3 4 5 6 7 8 9 10 11 12 13 14 15 16 17 18 19 20 21 22 23 24 25 26 27 28 29 30 31 32 33 34 35 36 37 38 39 40 41 42 43 44 45 46 47 48 49 50
172
FTUS45 KBOU 210427 AAA
TAFBJC
TAF AMD
KBJC 210427Z 2104/2124 26008KT P6SM SCT090 BKN150
     FM210800 25007KT P6SM SCT070 BKN120
     FM211300 VRB05KT P6SM SCT050 BKN080
     FM211900 03012KT P6SM VCSH SCT050 BKN080 PROB30 2119/2122 -TSRA
      BKN050CB=

USA.gov is the U.S. government's official web portal to all federal, state and local government web resources and services.